createdAt,value
2018-08-11T00:01:27.805Z,17.40
2018-08-11T00:03:56.217Z,17.40
2018-08-11T00:06:24.614Z,17.40
2018-08-11T00:08:53.030Z,17.30
2018-08-11T00:11:21.416Z,17.30
2018-08-11T00:13:49.842Z,17.30
2018-08-11T00:16:18.190Z,17.30
2018-08-11T00:18:46.512Z,17.30
2018-08-11T00:21:14.799Z,17.30
2018-08-11T00:23:43.144Z,17.30
2018-08-11T00:26:11.484Z,17.30
2018-08-11T00:28:39.817Z,17.30
2018-08-11T00:31:08.128Z,17.30
2018-08-11T00:33:36.470Z,17.30
2018-08-11T00:36:04.780Z,17.20
2018-08-11T00:38:33.087Z,17.30
2018-08-11T00:41:01.613Z,17.20
2018-08-11T00:43:30.124Z,17.20
2018-08-11T00:45:58.476Z,17.30
2018-08-11T00:48:26.976Z,17.20
2018-08-11T00:50:55.345Z,17.30
2018-08-11T00:53:23.761Z,17.30
2018-08-11T00:55:52.165Z,17.30
2018-08-11T00:58:20.590Z,17.20
2018-08-11T01:00:48.953Z,17.20
2018-08-11T01:03:17.320Z,17.20
2018-08-11T01:05:45.628Z,17.20
2018-08-11T01:08:13.988Z,17.20
2018-08-11T01:10:42.309Z,17.20
2018-08-11T01:13:10.673Z,17.20
2018-08-11T01:15:40.092Z,17.20
2018-08-11T01:18:08.580Z,17.20
2018-08-11T01:20:36.901Z,17.20
2018-08-11T01:23:05.230Z,17.10
2018-08-11T01:25:33.582Z,17.10
2018-08-11T01:28:01.954Z,17.10
2018-08-11T01:30:30.396Z,17.10
2018-08-11T01:32:58.828Z,17.10
2018-08-11T01:35:27.255Z,17.10
2018-08-11T01:37:55.670Z,17.10
2018-08-11T01:40:24.058Z,17.10
2018-08-11T01:42:52.466Z,17.10
2018-08-11T01:45:20.886Z,17.10
2018-08-11T01:47:49.283Z,17.20
2018-08-11T01:50:17.593Z,17.20
2018-08-11T01:52:46.945Z,17.20
2018-08-11T01:55:16.659Z,17.20
2018-08-11T01:57:45.155Z,17.20
2018-08-11T02:00:14.705Z,17.20
2018-08-11T02:02:43.143Z,17.20
2018-08-11T02:05:12.175Z,17.20
2018-08-11T02:07:41.670Z,17.20
2018-08-11T02:10:14.198Z,17.20
2018-08-11T02:12:42.572Z,17.20
2018-08-11T02:15:12.417Z,17.20
2018-08-11T02:17:40.753Z,17.20
2018-08-11T02:20:11.678Z,17.10
2018-08-11T02:22:40.292Z,17.10
2018-08-11T02:25:09.428Z,17.10
2018-08-11T02:27:38.145Z,17.10
2018-08-11T02:30:08.340Z,17.00
2018-08-11T02:32:36.763Z,17.00
2018-08-11T02:35:06.217Z,17.00
2018-08-11T02:37:34.613Z,17.00
2018-08-11T02:40:03.018Z,17.00
2018-08-11T02:42:31.334Z,17.00
2018-08-11T02:44:59.866Z,16.90
2018-08-11T02:47:28.205Z,16.90
2018-08-11T02:49:56.686Z,16.90
2018-08-11T02:52:25.067Z,16.90
2018-08-11T02:54:53.437Z,16.90
2018-08-11T02:57:21.814Z,16.80
2018-08-11T02:59:50.617Z,16.80
2018-08-11T03:02:19.244Z,16.80
2018-08-11T03:04:47.602Z,16.80
2018-08-11T03:07:15.910Z,16.80
2018-08-11T03:09:44.237Z,16.80
2018-08-11T03:12:12.567Z,16.80
2018-08-11T03:14:40.913Z,16.80
2018-08-11T03:17:09.237Z,16.80
2018-08-11T03:19:37.572Z,16.80
2018-08-11T03:22:06.075Z,16.80
2018-08-11T03:24:34.398Z,16.80
2018-08-11T03:27:02.705Z,16.80
2018-08-11T03:29:31.041Z,16.70
2018-08-11T03:31:59.418Z,16.70
2018-08-11T03:34:27.776Z,16.70
2018-08-11T03:36:56.146Z,16.60
2018-08-11T03:39:24.540Z,16.60
2018-08-11T03:41:53.059Z,16.60
2018-08-11T03:44:21.430Z,16.60
2018-08-11T03:46:49.919Z,16.60
2018-08-11T03:49:18.284Z,16.60
2018-08-11T03:51:46.597Z,16.60
2018-08-11T03:54:14.933Z,16.60
2018-08-11T03:56:43.253Z,16.60
2018-08-11T03:59:11.600Z,16.60
2018-08-11T04:01:39.913Z,16.60
2018-08-11T04:04:08.280Z,16.60
2018-08-11T04:06:36.612Z,16.60
2018-08-11T04:09:07.482Z,16.60
2018-08-11T04:11:35.833Z,16.60
2018-08-11T04:14:04.164Z,16.60
2018-08-11T04:16:32.461Z,16.60
2018-08-11T04:19:00.804Z,16.70
2018-08-11T04:21:29.150Z,16.70
2018-08-11T04:23:57.522Z,16.70
2018-08-11T04:26:25.844Z,16.70
2018-08-11T04:28:54.246Z,16.70
2018-08-11T04:31:22.682Z,16.70
2018-08-11T04:33:51.040Z,16.80
2018-08-11T04:36:19.559Z,16.80
2018-08-11T04:38:47.824Z,16.80
2018-08-11T04:41:16.206Z,16.90
2018-08-11T04:43:44.538Z,16.90
2018-08-11T04:46:12.852Z,16.90
2018-08-11T04:48:41.169Z,16.90
2018-08-11T04:51:09.526Z,16.90
2018-08-11T04:53:37.861Z,16.90
2018-08-11T04:56:06.219Z,16.90
2018-08-11T04:58:34.557Z,16.90
2018-08-11T05:01:02.877Z,16.90
2018-08-11T05:03:31.196Z,16.90
2018-08-11T05:05:59.533Z,17.00
2018-08-11T05:08:27.849Z,17.00
2018-08-11T05:10:56.321Z,17.00
2018-08-11T05:13:24.656Z,17.00
2018-08-11T05:15:53.064Z,17.00
2018-08-11T05:18:21.513Z,17.00
2018-08-11T05:20:50.082Z,17.00
2018-08-11T05:23:18.376Z,17.00
2018-08-11T05:25:46.710Z,17.00
2018-08-11T05:28:15.062Z,17.10
2018-08-11T05:30:43.394Z,17.10
2018-08-11T05:33:11.749Z,17.20
2018-08-11T05:35:40.084Z,17.20
2018-08-11T05:38:08.441Z,17.20
2018-08-11T05:40:36.840Z,17.30
2018-08-11T05:43:05.157Z,17.30
2018-08-11T05:45:33.538Z,17.40
2018-08-11T05:48:01.840Z,17.40
2018-08-11T05:50:30.183Z,17.40
2018-08-11T05:52:58.495Z,17.50
2018-08-11T05:55:26.845Z,17.50
2018-08-11T05:57:55.228Z,17.50
2018-08-11T06:00:23.679Z,17.60
2018-08-11T06:02:52.097Z,17.60
2018-08-11T06:05:20.497Z,17.70
2018-08-11T06:07:48.821Z,17.70
2018-08-11T06:10:17.208Z,17.80
2018-08-11T06:12:45.542Z,17.90
2018-08-11T06:15:13.868Z,17.90
2018-08-11T06:17:42.189Z,18.00
2018-08-11T06:20:11.035Z,18.00
2018-08-11T06:22:39.357Z,18.10
2018-08-11T06:25:09.484Z,18.10
2018-08-11T06:27:37.869Z,18.20
2018-08-11T06:30:07.745Z,18.30
2018-08-11T06:32:36.079Z,18.40
2018-08-11T06:35:05.241Z,18.50
2018-08-11T06:37:33.573Z,18.60
2018-08-11T06:40:01.922Z,18.60
2018-08-11T06:42:30.237Z,18.70
2018-08-11T06:44:58.677Z,18.80
2018-08-11T06:47:27.297Z,18.90
2018-08-11T06:49:55.617Z,18.90
2018-08-11T06:52:24.076Z,18.90
2018-08-11T06:54:52.725Z,18.90
2018-08-11T06:57:21.356Z,18.90
2018-08-11T06:59:53.129Z,19.00
2018-08-11T07:02:21.609Z,19.00
2018-08-11T07:04:50.069Z,19.10
2018-08-11T07:07:21.936Z,19.20
2018-08-11T07:09:50.356Z,19.20
2018-08-11T07:12:18.685Z,19.30
2018-08-11T07:14:47.811Z,19.30
2018-08-11T07:17:16.143Z,19.30
2018-08-11T07:19:44.460Z,19.30
2018-08-11T07:22:12.828Z,19.30
2018-08-11T07:24:41.937Z,19.30
2018-08-11T07:27:10.416Z,19.30
2018-08-11T07:29:38.789Z,19.40
2018-08-11T07:32:07.247Z,19.40
2018-08-11T07:34:35.564Z,19.50
2018-08-11T07:37:04.168Z,19.50
2018-08-11T07:39:36.504Z,19.60
2018-08-11T07:42:05.056Z,19.60
2018-08-11T07:44:33.410Z,19.60
2018-08-11T07:47:01.739Z,19.60
2018-08-11T07:49:45.810Z,19.60
2018-08-11T07:52:17.197Z,19.60
2018-08-11T07:54:45.496Z,19.70
2018-08-11T07:57:14.666Z,19.70
2018-08-11T07:59:43.047Z,19.80
2018-08-11T08:02:11.400Z,19.80
2018-08-11T08:04:39.742Z,19.80
2018-08-11T08:07:08.142Z,19.90
2018-08-11T08:09:45.685Z,19.90
2018-08-11T08:12:14.012Z,19.90
2018-08-11T08:14:42.323Z,19.90
2018-08-11T08:17:10.752Z,19.90
2018-08-11T08:19:39.099Z,19.80
2018-08-11T08:22:07.486Z,19.80
2018-08-11T08:24:38.076Z,19.80
2018-08-11T08:27:06.721Z,19.80
2018-08-11T08:29:35.145Z,19.80
2018-08-11T08:32:03.520Z,19.70
2018-08-11T08:34:31.847Z,19.60
2018-08-11T08:37:02.262Z,19.50
2018-08-11T08:39:30.725Z,19.50
2018-08-11T08:41:59.328Z,19.40
2018-08-11T08:44:27.685Z,19.40
2018-08-11T08:46:56.115Z,19.30
2018-08-11T08:49:24.779Z,19.20
2018-08-11T08:51:53.183Z,19.20
2018-08-11T08:54:21.569Z,19.10
2018-08-11T08:56:50.395Z,19.00
2018-08-11T08:59:18.862Z,18.90
2018-08-11T09:01:47.245Z,18.80
2018-08-11T09:04:15.572Z,18.70
2018-08-11T09:06:43.973Z,18.70
2018-08-11T09:09:12.816Z,18.70
2018-08-11T09:11:41.738Z,18.70
2018-08-11T09:14:10.304Z,18.80
2018-08-11T09:16:38.670Z,18.80
2018-08-11T09:19:07.059Z,18.80
2018-08-11T09:21:35.385Z,18.90
2018-08-11T09:24:03.692Z,18.90
2018-08-11T09:26:32.093Z,19.10
2018-08-11T09:29:00.411Z,19.20
2018-08-11T09:31:28.837Z,19.40
2018-08-11T09:33:57.543Z,19.60
2018-08-11T09:36:26.118Z,19.80
2018-08-11T09:38:54.533Z,19.90
2018-08-11T09:41:23.123Z,20.00
2018-08-11T09:43:51.483Z,20.10
2018-08-11T09:46:20.067Z,20.20
2018-08-11T09:48:48.489Z,20.40
2018-08-11T09:51:16.916Z,20.60
2018-08-11T09:53:45.497Z,20.70
2018-08-11T09:56:14.778Z,20.80
2018-08-11T09:58:43.176Z,21.00
2018-08-11T10:01:52.554Z,21.10
2018-08-11T10:04:20.970Z,21.20
2018-08-11T10:06:50.086Z,21.40
2018-08-11T10:09:18.403Z,21.50
2018-08-11T10:11:46.730Z,21.60
2018-08-11T10:14:15.789Z,21.70
2018-08-11T10:16:44.156Z,21.70
2018-08-11T10:19:14.976Z,21.80
2018-08-11T10:21:45.098Z,21.80
2018-08-11T10:24:13.560Z,21.80
2018-08-11T10:29:23.223Z,22.00
2018-08-11T10:31:52.127Z,22.10
2018-08-11T10:34:20.691Z,22.20
2018-08-11T10:36:50.905Z,22.20
2018-08-11T10:39:22.955Z,22.20
2018-08-11T10:41:51.650Z,22.10
2018-08-11T10:44:20.095Z,22.10
2018-08-11T10:46:50.350Z,22.10
2018-08-11T10:49:22.838Z,22.20
2018-08-11T10:51:52.026Z,22.40
2018-08-11T10:54:20.474Z,22.50
2018-08-11T10:56:48.912Z,22.60
2018-08-11T10:59:17.313Z,22.60
2018-08-11T11:01:45.622Z,22.60
2018-08-11T11:04:16.477Z,22.70
2018-08-11T11:06:52.123Z,22.80
2018-08-11T11:09:21.494Z,22.90
2018-08-11T11:11:50.009Z,22.90
2018-08-11T11:14:20.193Z,23.00
2018-08-11T11:16:50.212Z,23.00
2018-08-11T11:19:19.559Z,23.10
2018-08-11T11:21:50.048Z,23.20
2018-08-11T11:24:18.373Z,23.30
2018-08-11T11:26:48.348Z,23.40
2018-08-11T11:29:16.703Z,23.50
2018-08-11T11:31:45.089Z,23.60
2018-08-11T11:34:13.418Z,23.80
2018-08-11T11:36:43.087Z,23.90
2018-08-11T11:39:18.297Z,24.00
2018-08-11T11:41:46.712Z,24.10
2018-08-11T11:44:15.041Z,24.10
2018-08-11T11:46:44.233Z,24.20
2018-08-11T11:49:12.995Z,24.40
2018-08-11T11:51:41.409Z,24.40
2018-08-11T11:54:09.858Z,24.40
2018-08-11T11:56:39.329Z,24.50
2018-08-11T11:59:07.705Z,24.50
2018-08-11T12:01:36.028Z,24.70
2018-08-11T12:04:04.382Z,24.80
2018-08-11T12:06:32.748Z,24.90
2018-08-11T12:09:01.166Z,25.00
2018-08-11T12:11:29.575Z,25.00
2018-08-11T12:13:57.908Z,25.10
2018-08-11T12:16:28.989Z,25.20
2018-08-11T12:19:00.428Z,25.50
2018-08-11T12:21:29.014Z,25.60
2018-08-11T12:23:58.485Z,25.70
2018-08-11T12:26:27.116Z,25.80
2018-08-11T12:28:55.507Z,25.90
2018-08-11T12:31:24.007Z,26.00
2018-08-11T12:33:52.521Z,26.10
2018-08-11T12:36:21.073Z,26.10
2018-08-11T12:38:49.522Z,26.10
2018-08-11T12:41:17.822Z,26.10
2018-08-11T12:43:46.170Z,26.20
2018-08-11T12:46:14.494Z,26.30
2018-08-11T12:48:42.880Z,26.30
2018-08-11T12:51:11.361Z,26.30
2018-08-11T12:53:39.758Z,26.30
2018-08-11T12:56:08.109Z,26.40
2018-08-11T12:58:36.469Z,26.40
2018-08-11T13:01:04.789Z,26.40
2018-08-11T13:03:33.131Z,26.40
2018-08-11T13:06:01.749Z,26.40
2018-08-11T13:08:30.228Z,26.50
2018-08-11T13:10:58.824Z,26.50
2018-08-11T13:13:32.094Z,26.60
2018-08-11T13:16:01.554Z,26.60
2018-08-11T13:18:29.938Z,26.60
2018-08-11T13:20:58.259Z,26.60
2018-08-11T13:23:26.888Z,26.70
2018-08-11T13:25:56.073Z,26.80
2018-08-11T13:28:24.521Z,26.90
2018-08-11T13:30:52.965Z,27.00
2018-08-11T13:33:21.366Z,27.10
2018-08-11T13:35:49.697Z,27.10
2018-08-11T13:38:18.032Z,27.20
2018-08-11T13:40:46.338Z,27.20
2018-08-11T13:43:14.698Z,27.20
2018-08-11T13:45:43.050Z,27.20
2018-08-11T13:48:11.381Z,27.30
2018-08-11T13:50:39.753Z,27.30
2018-08-11T13:53:08.088Z,27.20
2018-08-11T13:55:36.498Z,27.10
2018-08-11T13:58:04.857Z,27.00
2018-08-11T14:00:33.249Z,27.00
2018-08-11T14:03:01.601Z,27.00
2018-08-11T14:05:33.089Z,27.00
2018-08-11T14:08:01.475Z,27.00
2018-08-11T14:10:29.817Z,27.00
2018-08-11T14:12:58.236Z,27.10
2018-08-11T14:15:26.672Z,27.20
2018-08-11T14:17:55.000Z,27.30
2018-08-11T14:20:23.378Z,27.30
2018-08-11T14:22:52.660Z,27.40
2018-08-11T14:25:21.152Z,27.40
2018-08-11T14:27:50.126Z,27.40
2018-08-11T14:30:18.464Z,27.40
2018-08-11T14:32:46.826Z,27.30
2018-08-11T14:35:15.206Z,27.30
2018-08-11T14:37:43.565Z,27.10
2018-08-11T14:40:11.921Z,27.10
2018-08-11T14:42:41.565Z,27.00
2018-08-11T14:45:10.201Z,27.00
2018-08-11T14:47:38.544Z,26.90
2018-08-11T14:50:07.413Z,26.90
2018-08-11T14:52:35.723Z,26.90
2018-08-11T14:55:04.412Z,26.90
2018-08-11T14:57:32.740Z,26.80
2018-08-11T15:00:01.070Z,26.80
2018-08-11T15:02:29.414Z,26.70
2018-08-11T15:04:57.846Z,26.60
2018-08-11T15:07:26.173Z,26.60
2018-08-11T15:09:54.570Z,26.60
2018-08-11T15:12:22.896Z,26.50
2018-08-11T15:14:51.240Z,26.40
2018-08-11T15:17:19.588Z,26.20
2018-08-11T15:19:47.908Z,26.20
2018-08-11T15:22:16.222Z,26.10
2018-08-11T15:24:44.564Z,26.20
2018-08-11T15:27:12.900Z,26.20
2018-08-11T15:29:41.251Z,26.20
2018-08-11T15:32:09.718Z,26.00
2018-08-11T15:34:38.081Z,25.90
2018-08-11T15:37:06.427Z,25.80
2018-08-11T15:39:34.771Z,25.70
2018-08-11T15:42:03.108Z,25.60
2018-08-11T15:44:31.438Z,25.40
2018-08-11T15:46:59.762Z,25.30
2018-08-11T15:49:28.242Z,25.20
2018-08-11T15:51:56.637Z,25.10
2018-08-11T15:54:25.087Z,25.10
2018-08-11T15:56:53.458Z,25.00
2018-08-11T15:59:21.874Z,24.90
2018-08-11T16:01:50.201Z,24.80
2018-08-11T16:04:18.515Z,24.80
2018-08-11T16:06:46.836Z,24.70
2018-08-11T16:09:15.150Z,24.70
2018-08-11T16:11:43.488Z,24.60
2018-08-11T16:14:11.804Z,24.50
2018-08-11T16:16:40.150Z,24.40
2018-08-11T16:19:08.486Z,24.20
2018-08-11T16:21:36.910Z,24.10
2018-08-11T16:24:05.245Z,24.10
2018-08-11T16:26:33.574Z,24.00
2018-08-11T16:29:01.902Z,23.90
2018-08-11T16:31:30.234Z,23.80
2018-08-11T16:33:58.527Z,23.70
2018-08-11T16:36:26.871Z,23.70
2018-08-11T16:38:55.394Z,23.60
2018-08-11T16:41:23.749Z,23.60
2018-08-11T16:43:52.202Z,23.50
2018-08-11T16:46:20.608Z,23.40
2018-08-11T16:48:48.965Z,23.40
2018-08-11T16:51:17.313Z,23.40
2018-08-11T16:53:45.683Z,23.40
2018-08-11T16:56:14.000Z,23.40
2018-08-11T16:58:42.379Z,23.40
2018-08-11T17:01:10.705Z,23.30
2018-08-11T17:03:39.028Z,23.30
2018-08-11T17:06:07.387Z,23.20
2018-08-11T17:08:35.733Z,23.20
2018-08-11T17:11:04.076Z,23.10
2018-08-11T17:13:32.380Z,23.10
2018-08-11T17:16:00.716Z,23.00
2018-08-11T17:18:29.030Z,22.90
2018-08-11T17:20:57.399Z,22.90
2018-08-11T17:23:25.733Z,22.80
2018-08-11T17:25:54.113Z,22.80
2018-08-11T17:28:22.474Z,22.80
2018-08-11T17:30:50.817Z,22.70
2018-08-11T17:33:19.138Z,22.70
2018-08-11T17:35:48.006Z,22.60
2018-08-11T17:38:16.321Z,22.50
2018-08-11T17:40:44.641Z,22.50
2018-08-11T17:43:12.954Z,22.40
2018-08-11T17:45:41.295Z,22.40
2018-08-11T17:48:09.986Z,22.40
2018-08-11T17:50:38.336Z,22.30
2018-08-11T17:53:06.781Z,22.30
2018-08-11T17:55:35.191Z,22.20
2018-08-11T17:58:03.484Z,22.20
2018-08-11T18:00:31.816Z,22.20
2018-08-11T18:03:00.160Z,22.10
2018-08-11T18:05:28.493Z,22.10
2018-08-11T18:07:56.828Z,22.00
2018-08-11T18:10:25.244Z,21.90
2018-08-11T18:12:53.718Z,21.90
2018-08-11T18:15:22.040Z,21.80
2018-08-11T18:17:50.391Z,21.80
2018-08-11T18:20:18.748Z,21.70
2018-08-11T18:22:47.139Z,21.70
2018-08-11T18:25:15.457Z,21.70
2018-08-11T18:27:43.900Z,21.60
2018-08-11T18:30:12.237Z,21.50
2018-08-11T18:32:40.582Z,21.40
2018-08-11T18:35:09.524Z,21.40
2018-08-11T18:37:37.898Z,21.30
2018-08-11T18:40:06.542Z,21.20
2018-08-11T18:42:34.864Z,21.20
2018-08-11T18:45:03.176Z,21.20
2018-08-11T18:47:31.520Z,21.10
2018-08-11T18:49:59.864Z,21.00
2018-08-11T18:52:28.307Z,21.00
2018-08-11T18:54:56.629Z,20.90
2018-08-11T18:57:25.068Z,20.90
2018-08-11T18:59:53.431Z,20.80
2018-08-11T19:02:21.821Z,20.80
2018-08-11T19:04:50.178Z,20.70
2018-08-11T19:07:18.512Z,20.60
2018-08-11T19:09:46.830Z,20.60
2018-08-11T19:12:15.225Z,20.50
2018-08-11T19:14:43.546Z,20.50
2018-08-11T19:17:11.919Z,20.40
2018-08-11T19:19:40.303Z,20.40
2018-08-11T19:22:08.640Z,20.30
2018-08-11T19:24:36.946Z,20.30
2018-08-11T19:27:05.316Z,20.30
2018-08-11T19:29:33.624Z,20.20
2018-08-11T19:32:01.949Z,20.20
2018-08-11T19:34:30.338Z,20.10
2018-08-11T19:36:58.689Z,20.10
2018-08-11T19:39:27.021Z,20.00
2018-08-11T19:41:55.405Z,20.00
2018-08-11T19:44:23.771Z,19.90
2018-08-11T19:46:52.660Z,19.90
2018-08-11T19:49:21.081Z,19.90
2018-08-11T19:51:49.417Z,19.90
2018-08-11T19:54:17.746Z,19.80
2018-08-11T19:56:46.149Z,19.80
2018-08-11T19:59:14.465Z,19.70
2018-08-11T20:01:42.907Z,19.60
2018-08-11T20:04:13.786Z,19.60
2018-08-11T20:06:42.656Z,19.60
2018-08-11T20:09:11.948Z,19.50
2018-08-11T20:11:40.393Z,19.50
2018-08-11T20:14:08.966Z,19.40
2018-08-11T20:16:37.313Z,19.40
2018-08-11T20:19:06.055Z,19.30
2018-08-11T20:21:34.884Z,19.20
2018-08-11T20:24:03.277Z,19.20
2018-08-11T20:26:31.760Z,19.10
2018-08-11T20:29:00.122Z,19.00
2018-08-11T20:31:28.497Z,19.00
2018-08-11T20:33:56.812Z,18.90
2018-08-11T20:36:25.167Z,18.80
2018-08-11T20:38:53.525Z,18.80
2018-08-11T20:41:21.933Z,18.70
2018-08-11T20:43:50.341Z,18.70
2018-08-11T20:46:18.648Z,18.60
2018-08-11T20:48:46.982Z,18.50
2018-08-11T20:51:15.321Z,18.40
2018-08-11T20:53:43.670Z,18.40
2018-08-11T20:56:12.025Z,18.30
2018-08-11T20:58:40.425Z,18.20
2018-08-11T21:01:08.794Z,18.20
2018-08-11T21:03:37.120Z,18.10
2018-08-11T21:06:05.461Z,18.10
2018-08-11T21:08:33.850Z,18.00
2018-08-11T21:11:02.168Z,18.00
2018-08-11T21:13:30.509Z,17.90
2018-08-11T21:15:58.890Z,17.80
2018-08-11T21:18:27.217Z,17.80
2018-08-11T21:20:55.544Z,17.70
2018-08-11T21:23:23.908Z,17.70
2018-08-11T21:25:52.277Z,17.60
2018-08-11T21:28:20.611Z,17.50
2018-08-11T21:30:48.917Z,17.50
2018-08-11T21:33:17.237Z,17.40
2018-08-11T21:35:45.570Z,17.40
2018-08-11T21:38:13.904Z,17.40
2018-08-11T21:40:42.246Z,17.30
2018-08-11T21:43:10.579Z,17.30
2018-08-11T21:45:38.896Z,17.20
2018-08-11T21:48:07.238Z,17.20
2018-08-11T21:50:35.541Z,17.10
2018-08-11T21:53:03.917Z,17.10
2018-08-11T21:55:32.259Z,17.00
2018-08-11T21:58:00.592Z,17.00
2018-08-11T22:00:32.796Z,17.00
2018-08-11T22:03:01.465Z,16.90
2018-08-11T22:05:29.945Z,16.90
2018-08-11T22:07:59.391Z,16.90
2018-08-11T22:10:28.280Z,16.80
2018-08-11T22:12:56.677Z,16.80
2018-08-11T22:15:25.074Z,16.70
2018-08-11T22:17:53.454Z,16.70
2018-08-11T22:20:21.831Z,16.70
2018-08-11T22:22:50.202Z,16.60
2018-08-11T22:25:18.561Z,16.60
2018-08-11T22:27:46.941Z,16.60
2018-08-11T22:30:15.264Z,16.50
2018-08-11T22:32:43.599Z,16.50
2018-08-11T22:35:12.746Z,16.40
2018-08-11T22:37:41.101Z,16.30
2018-08-11T22:40:09.466Z,16.30
2018-08-11T22:42:38.582Z,16.20
2018-08-11T22:45:08.496Z,16.20
2018-08-11T22:47:37.007Z,16.20
2018-08-11T22:50:07.182Z,16.20
2018-08-11T22:52:35.624Z,16.10
2018-08-11T22:55:04.375Z,16.10
2018-08-11T22:57:32.753Z,16.00
2018-08-11T23:00:01.109Z,16.00
2018-08-11T23:02:29.548Z,15.90
2018-08-11T23:04:57.900Z,15.90
2018-08-11T23:07:26.256Z,15.90
2018-08-11T23:09:54.608Z,15.80
2018-08-11T23:12:22.948Z,15.80
2018-08-11T23:14:51.293Z,15.80
2018-08-11T23:17:19.665Z,15.70
2018-08-11T23:19:47.993Z,15.70
2018-08-11T23:22:16.306Z,15.70
2018-08-11T23:24:44.676Z,15.70
2018-08-11T23:27:12.993Z,15.60
2018-08-11T23:29:41.356Z,15.60
2018-08-11T23:32:09.673Z,15.60
2018-08-11T23:34:38.046Z,15.60
2018-08-11T23:37:06.385Z,15.60
2018-08-11T23:39:34.708Z,15.60
2018-08-11T23:42:03.039Z,15.60
2018-08-11T23:44:31.400Z,15.50
2018-08-11T23:46:59.715Z,15.50
2018-08-11T23:49:28.365Z,15.50
2018-08-11T23:51:56.701Z,15.40
2018-08-11T23:54:25.069Z,15.40
2018-08-11T23:56:53.432Z,15.40
2018-08-11T23:59:21.842Z,15.40
